Flood From: 18-02-2018 10:00 Until: 19-02-2018 06:00 warning for: Flood Level: Yellow info button

Although rather usual in this region, locally or potentially dangerous phenomena are expected. (such as local winds, summer thunderstorms, rising streams or high waves) Be aware and pay attention to the latest weather updates, especially if you carry out activities exposed to weather or close to a stream or shoreline. 


Meteo18 Weather Cam more information Meteo18 Weather Cam


Thunder radar more information blitzortung!


Rain radar more information rain snow radar


Visit our other weather sites:

Template documentation
and downloads

And another site



Weather Underground History page Text

Daily Summary for October 2, 2017 Units:  Both    English   Metric
« Previous Day
Next Day »
Daily Weekly Monthly Yearly Custom
  High: Low: Average:
Temperature: TemperatureC °F /  -17.8 °C 13.8 °F /  -10.1 °C 16.3 °F /  -8.7 °C
Dew Point: DewpointC °F /  -17.8 °C 13.3 °F /  -10.4 °C 15.3 °F /  -9.3 °C
Humidity: Humidity % 85 % 93 %
Wind Speed: WindSpeedKMH mph /  0 km/h - 8.1 mph /  13 km/h
Wind Gust: WindSpeedGustKMH mph /  0 km/h - -
Wind:- - SW
Pressure: PressurehPa in /  0 hPa 1020.2 in /  34544 hPa -
Precipitation: 1.0 in /  25.4 mm    
Historical Graphs
 
 
Tabular Data for October 2, 2017
Time Temperature Dew Point Pressure Wind Wind Speed Wind Gust Humidity Rainfall Rate (Hourly)
TemperatureC °F /  -17.8 °C DewpointC °F /  -17.8 °C PressurehPa in /  0 hPa Calm     Humidity % HourlyPrecipMM in /  0 mm
00:02 13.8 °F /  -10.1 °C 13.3 °F /  -10.4 °C 1020.9 in /  34567.7 hPa SSW 6.4 mph /  10.3 km/h 17.7 mph /  28.5 km/h 97 % 0.0 in /  0 mm
00:07 13.8 °F /  -10.1 °C 13.3 °F /  -10.4 °C 1020.9 in /  34567.7 hPa SSW 8.0 mph /  12.9 km/h 17.7 mph /  28.5 km/h 97 % 0.0 in /  0 mm
00:12 13.8 °F /  -10.1 °C 13.3 °F /  -10.4 °C 1020.9 in /  34567.7 hPa SSW 4.8 mph /  7.7 km/h 14.5 mph /  23.3 km/h 97 % 0.0 in /  0 mm
00:17 13.8 °F /  -10.1 °C 13.3 °F /  -10.4 °C 1020.9 in /  34567.7 hPa SW 9.7 mph /  15.6 km/h 14.5 mph /  23.3 km/h 97 % 0.0 in /  0 mm
00:22 13.8 °F /  -10.1 °C 13.3 °F /  -10.4 °C 1020.9 in /  34567.7 hPa SW 8.0 mph /  12.9 km/h 14.5 mph /  23.3 km/h 97 % 0.0 in /  0 mm
00:32 13.8 °F /  -10.1 °C 13.3 °F /  -10.4 °C 1020.9 in /  34567.7 hPa South 4.8 mph /  7.7 km/h 12.9 mph /  20.8 km/h 97 % 0.0 in /  0 mm
00:37 13.8 °F /  -10.1 °C 13.3 °F /  -10.4 °C 1020.9 in /  34567.7 hPa SW 12.9 mph /  20.8 km/h 14.5 mph /  23.3 km/h 97 % 0.0 in /  0 mm
00:42 13.8 °F /  -10.1 °C 13.3 °F /  -10.4 °C 1020.9 in /  34567.7 hPa SW 4.8 mph /  7.7 km/h 14.5 mph /  23.3 km/h 97 % 0.0 in /  0 mm
00:47 13.8 °F /  -10.1 °C 13.3 °F /  -10.4 °C 1020.5 in /  34554.1 hPa SW 8.0 mph /  12.9 km/h 14.5 mph /  23.3 km/h 97 % 0.0 in /  0 mm
00:57 13.8 °F /  -10.1 °C 13.3 °F /  -10.4 °C 1020.5 in /  34554.1 hPa SW 8.0 mph /  12.9 km/h 14.5 mph /  23.3 km/h 97 % 0.0 in /  0 mm
01:02 13.8 °F /  -10.1 °C 13.3 °F /  -10.4 °C 1020.5 in /  34554.1 hPa SSW 4.8 mph /  7.7 km/h 11.3 mph /  18.2 km/h 97 % 0.0 in /  0 mm
01:12 13.8 °F /  -10.1 °C 13.3 °F /  -10.4 °C 1020.9 in /  34567.7 hPa SSW 4.8 mph /  7.7 km/h 12.9 mph /  20.8 km/h 97 % 0.0 in /  0 mm
01:22 13.8 °F /  -10.1 °C 13.3 °F /  -10.4 °C 1020.9 in /  34567.7 hPa SSW 3.2 mph /  5.1 km/h 11.3 mph /  18.2 km/h 97 % 0.0 in /  0 mm
01:32 13.8 °F /  -10.1 °C 13.3 °F /  -10.4 °C 1020.9 in /  34567.7 hPa SSW 3.2 mph /  5.1 km/h 9.7 mph /  15.6 km/h 97 % 0.0 in /  0 mm
01:37 13.8 °F /  -10.1 °C 13.3 °F /  -10.4 °C 1020.9 in /  34567.7 hPa South 4.8 mph /  7.7 km/h 9.7 mph /  15.6 km/h 97 % 0.0 in /  0 mm
01:42 13.9 °F /  -10.1 °C 13.4 °F /  -10.3 °C 1020.5 in /  34554.1 hPa SSW 3.2 mph /  5.1 km/h 9.7 mph /  15.6 km/h 97 % 0.0 in /  0 mm
01:47 13.9 °F /  -10.1 °C 13.4 °F /  -10.3 °C 1020.5 in /  34554.1 hPa SW 6.4 mph /  10.3 km/h 8.0 mph /  12.9 km/h 97 % 0.0 in /  0 mm
01:52 13.9 °F /  -10.1 °C 13.4 °F /  -10.3 °C 1020.5 in /  34554.1 hPa SSW 4.8 mph /  7.7 km/h 8.0 mph /  12.9 km/h 97 % 0.0 in /  0 mm
01:57 13.9 °F /  -10.1 °C 13.4 °F /  -10.3 °C 1020.5 in /  34554.1 hPa SW 8.0 mph /  12.9 km/h 11.3 mph /  18.2 km/h 97 % 0.0 in /  0 mm
02:02 13.9 °F /  -10.1 °C 13.4 °F /  -10.3 °C 1020.5 in /  34554.1 hPa SW 11.3 mph /  18.2 km/h 11.3 mph /  18.2 km/h 97 % 0.0 in /  0 mm
02:07 13.9 °F /  -10.1 °C 13.4 °F /  -10.3 °C 1020.5 in /  34554.1 hPa SSW 9.7 mph /  15.6 km/h 12.9 mph /  20.8 km/h 97 % 0.0 in /  0 mm
02:12 13.9 °F /  -10.1 °C 13.4 °F /  -10.3 °C 1020.5 in /  34554.1 hPa SW 8.0 mph /  12.9 km/h 12.9 mph /  20.8 km/h 97 % 0.0 in /  0 mm
02:17 14.0 °F /  -10 °C 13.5 °F /  -10.3 °C 1020.5 in /  34554.1 hPa SSW 4.8 mph /  7.7 km/h 12.9 mph /  20.8 km/h 97 % 0.0 in /  0 mm
02:22 14.0 °F /  -10 °C 13.5 °F /  -10.3 °C 1020.5 in /  34554.1 hPa SSW 8.0 mph /  12.9 km/h 14.5 mph /  23.3 km/h 97 % 0.0 in /  0 mm
02:27 14.0 °F /  -10 °C 13.5 °F /  -10.3 °C 1020.5 in /  34554.1 hPa SSW 6.4 mph /  10.3 km/h 14.5 mph /  23.3 km/h 97 % 0.3 in /  7.62 mm
02:32 14.1 °F /  -9.9 °C 13.6 °F /  -10.2 °C 1020.5 in /  34554.1 hPa SSW 4.8 mph /  7.7 km/h 14.5 mph /  23.3 km/h 97 % 0.3 in /  7.62 mm
02:37 14.1 °F /  -9.9 °C 13.6 °F /  -10.2 °C 1020.5 in /  34554.1 hPa SSW 8.0 mph /  12.9 km/h 11.3 mph /  18.2 km/h 97 % 0.3 in /  7.62 mm
02:42 14.1 °F /  -9.9 °C 13.6 °F /  -10.2 °C 1020.5 in /  34554.1 hPa South 3.2 mph /  5.1 km/h 11.3 mph /  18.2 km/h 97 % 0.3 in /  7.62 mm
02:47 14.1 °F /  -9.9 °C 13.6 °F /  -10.2 °C 1020.5 in /  34554.1 hPa SW 8.0 mph /  12.9 km/h 12.9 mph /  20.8 km/h 97 % 0.3 in /  7.62 mm
02:52 14.1 °F /  -9.9 °C 13.6 °F /  -10.2 °C 1020.5 in /  34554.1 hPa SW 8.0 mph /  12.9 km/h 12.9 mph /  20.8 km/h 97 % 0.3 in /  7.62 mm
02:57 14.1 °F /  -9.9 °C 13.6 °F /  -10.2 °C 1020.2 in /  34544 hPa SW 4.8 mph /  7.7 km/h 12.9 mph /  20.8 km/h 97 % 0.3 in /  7.62 mm
03:02 14.2 °F /  -9.9 °C 13.7 °F /  -10.2 °C 1020.2 in /  34544 hPa SSW 4.8 mph /  7.7 km/h 12.9 mph /  20.8 km/h 97 % 0.3 in /  7.62 mm
03:12 14.2 °F /  -9.9 °C 13.7 °F /  -10.2 °C 1020.2 in /  34544 hPa SSW 4.8 mph /  7.7 km/h 12.9 mph /  20.8 km/h 97 % 0.3 in /  7.62 mm
03:17 14.2 °F /  -9.9 °C 13.7 °F /  -10.2 °C 1020.2 in /  34544 hPa SSW 3.2 mph /  5.1 km/h 12.9 mph /  20.8 km/h 97 % 0.3 in /  7.62 mm
03:22 14.2 °F /  -9.9 °C 13.7 °F /  -10.2 °C 1020.2 in /  34544 hPa SW 9.7 mph /  15.6 km/h 12.9 mph /  20.8 km/h 97 % 0.3 in /  7.62 mm
03:27 14.2 °F /  -9.9 °C 13.7 °F /  -10.2 °C 1020.2 in /  34544 hPa SW 4.8 mph /  7.7 km/h 12.9 mph /  20.8 km/h 97 % 0.0 in /  0 mm
03:32 14.2 °F /  -9.9 °C 13.7 °F /  -10.2 °C 1020.5 in /  34554.1 hPa SSW 8.0 mph /  12.9 km/h 12.9 mph /  20.8 km/h 97 % 0.0 in /  0 mm
03:37 14.2 °F /  -9.9 °C 13.7 °F /  -10.2 °C 1020.2 in /  34544 hPa SSW 9.7 mph /  15.6 km/h 12.9 mph /  20.8 km/h 97 % 0.0 in /  0 mm
03:42 14.3 °F /  -9.8 °C 13.8 °F /  -10.1 °C 1020.2 in /  34544 hPa South 4.8 mph /  7.7 km/h 11.3 mph /  18.2 km/h 97 % 0.0 in /  0 mm
03:47 14.3 °F /  -9.8 °C 13.8 °F /  -10.1 °C 1020.2 in /  34544 hPa SSW 4.8 mph /  7.7 km/h 11.3 mph /  18.2 km/h 97 % 0.0 in /  0 mm
03:52 14.3 °F /  -9.8 °C 14.0 °F /  -10 °C 1020.2 in /  34544 hPa SW 3.2 mph /  5.1 km/h 11.3 mph /  18.2 km/h 98 % 0.0 in /  0 mm
03:57 14.3 °F /  -9.8 °C 13.8 °F /  -10.1 °C 1020.5 in /  34554.1 hPa SW 6.4 mph /  10.3 km/h 11.3 mph /  18.2 km/h 97 % 0.0 in /  0 mm
04:02 14.3 °F /  -9.8 °C 14.0 °F /  -10 °C 1020.5 in /  34554.1 hPa WSW 4.8 mph /  7.7 km/h 11.3 mph /  18.2 km/h 98 % 0.0 in /  0 mm
04:07 14.3 °F /  -9.8 °C 14.0 °F /  -10 °C 1020.2 in /  34544 hPa SW 8.0 mph /  12.9 km/h 11.3 mph /  18.2 km/h 98 % 0.0 in /  0 mm
04:12 14.3 °F /  -9.8 °C 14.0 °F /  -10 °C 1020.5 in /  34554.1 hPa SW 6.4 mph /  10.3 km/h 11.3 mph /  18.2 km/h 98 % 0.0 in /  0 mm
04:17 14.3 °F /  -9.8 °C 14.0 °F /  -10 °C 1020.2 in /  34544 hPa WSW 9.7 mph /  15.6 km/h 11.3 mph /  18.2 km/h 98 % 0.0 in /  0 mm
04:22 14.4 °F /  -9.8 °C 14.1 °F /  -9.9 °C 1020.2 in /  34544 hPa SW 9.7 mph /  15.6 km/h 11.3 mph /  18.2 km/h 98 % 0.0 in /  0 mm
04:27 14.4 °F /  -9.8 °C 14.1 °F /  -9.9 °C 1020.5 in /  34554.1 hPa SSW 8.0 mph /  12.9 km/h 16.1 mph /  25.9 km/h 98 % 0.0 in /  0 mm
04:32 14.4 °F /  -9.8 °C 14.1 °F /  -9.9 °C 1020.5 in /  34554.1 hPa SW 4.8 mph /  7.7 km/h 16.1 mph /  25.9 km/h 98 % 0.0 in /  0 mm
04:37 14.4 °F /  -9.8 °C 14.1 °F /  -9.9 °C 1020.5 in /  34554.1 hPa SW 3.2 mph /  5.1 km/h 14.5 mph /  23.3 km/h 98 % 0.0 in /  0 mm
04:42 14.4 °F /  -9.8 °C 14.1 °F /  -9.9 °C 1020.5 in /  34554.1 hPa SW 8.0 mph /  12.9 km/h 11.3 mph /  18.2 km/h 98 % 0.0 in /  0 mm
04:52 14.5 °F /  -9.7 °C 14.2 °F /  -9.9 °C 1020.5 in /  34554.1 hPa SSW 3.2 mph /  5.1 km/h 11.3 mph /  18.2 km/h 98 % 0.0 in /  0 mm
04:57 14.5 °F /  -9.7 °C 14.2 °F /  -9.9 °C 1020.5 in /  34554.1 hPa SW 4.8 mph /  7.7 km/h 9.7 mph /  15.6 km/h 98 % 0.0 in /  0 mm
05:02 14.5 °F /  -9.7 °C 14.2 °F /  -9.9 °C 1020.5 in /  34554.1 hPa SSE 4.8 mph /  7.7 km/h 9.7 mph /  15.6 km/h 98 % 0.0 in /  0 mm
05:07 14.5 °F /  -9.7 °C 14.2 °F /  -9.9 °C 1020.5 in /  34554.1 hPa SW 8.0 mph /  12.9 km/h 8.0 mph /  12.9 km/h 98 % 0.0 in /  0 mm
05:12 14.6 °F /  -9.7 °C 14.3 °F /  -9.8 °C 1020.5 in /  34554.1 hPa SW 6.4 mph /  10.3 km/h 9.7 mph /  15.6 km/h 98 % 0.0 in /  0 mm
05:22 14.6 °F /  -9.7 °C 14.3 °F /  -9.8 °C 1020.2 in /  34544 hPa SW 6.4 mph /  10.3 km/h 11.3 mph /  18.2 km/h 98 % 0.3 in /  7.62 mm
05:27 14.6 °F /  -9.7 °C 14.3 °F /  -9.8 °C 1020.2 in /  34544 hPa SW 6.4 mph /  10.3 km/h 11.3 mph /  18.2 km/h 98 % 0.3 in /  7.62 mm
05:32 14.7 °F /  -9.6 °C 14.4 °F /  -9.8 °C 1020.5 in /  34554.1 hPa SW 4.8 mph /  7.7 km/h 11.3 mph /  18.2 km/h 98 % 0.3 in /  7.62 mm
05:37 14.7 °F /  -9.6 °C 14.4 °F /  -9.8 °C 1020.5 in /  34554.1 hPa SSW 6.4 mph /  10.3 km/h 11.3 mph /  18.2 km/h 98 % 0.3 in /  7.62 mm
05:42 14.7 °F /  -9.6 °C 14.4 °F /  -9.8 °C 1020.5 in /  34554.1 hPa SW 8.0 mph /  12.9 km/h 14.5 mph /  23.3 km/h 98 % 0.3 in /  7.62 mm
05:47 14.8 °F /  -9.6 °C 14.5 °F /  -9.7 °C 1020.5 in /  34554.1 hPa SSW 3.2 mph /  5.1 km/h 14.5 mph /  23.3 km/h 98 % 0.3 in /  7.62 mm
05:57 14.8 °F /  -9.6 °C 14.5 °F /  -9.7 °C 1020.5 in /  34554.1 hPa SW 9.7 mph /  15.6 km/h 12.9 mph /  20.8 km/h 98 % 0.3 in /  7.62 mm
06:02 14.8 °F /  -9.6 °C 14.5 °F /  -9.7 °C 1020.5 in /  34554.1 hPa SW 4.8 mph /  7.7 km/h 12.9 mph /  20.8 km/h 98 % 0.3 in /  7.62 mm
06:12 14.9 °F /  -9.5 °C 14.6 °F /  -9.7 °C 1020.5 in /  34554.1 hPa SW 11.3 mph /  18.2 km/h 14.5 mph /  23.3 km/h 98 % 0.3 in /  7.62 mm
06:17 14.9 °F /  -9.5 °C 14.6 °F /  -9.7 °C 1020.5 in /  34554.1 hPa West 4.8 mph /  7.7 km/h 14.5 mph /  23.3 km/h 98 % 0.0 in /  0 mm
06:22 14.9 °F /  -9.5 °C 14.6 °F /  -9.7 °C 1020.5 in /  34554.1 hPa SSE 4.8 mph /  7.7 km/h 16.1 mph /  25.9 km/h 98 % 0.0 in /  0 mm
06:32 14.9 °F /  -9.5 °C 14.6 °F /  -9.7 °C 1020.5 in /  34554.1 hPa SW 3.2 mph /  5.1 km/h 17.7 mph /  28.5 km/h 98 % 0.0 in /  0 mm
06:42 14.9 °F /  -9.5 °C 14.6 °F /  -9.7 °C 1020.5 in /  34554.1 hPa SW 8.0 mph /  12.9 km/h 12.9 mph /  20.8 km/h 98 % 0.0 in /  0 mm
06:52 14.9 °F /  -9.5 °C 14.6 °F /  -9.7 °C 1020.5 in /  34554.1 hPa SW 8.0 mph /  12.9 km/h 11.3 mph /  18.2 km/h 98 % 0.0 in /  0 mm
07:02 15.0 °F /  -9.4 °C 14.7 °F /  -9.6 °C 1020.5 in /  34554.1 hPa SW 9.7 mph /  15.6 km/h 14.5 mph /  23.3 km/h 98 % 0.0 in /  0 mm
07:12 15.0 °F /  -9.4 °C 14.7 °F /  -9.6 °C 1020.5 in /  34554.1 hPa SSW 11.3 mph /  18.2 km/h 16.1 mph /  25.9 km/h 98 % 0.0 in /  0 mm
07:17 15.1 °F /  -9.4 °C 14.8 °F /  -9.6 °C 1020.5 in /  34554.1 hPa WSW 8.0 mph /  12.9 km/h 16.1 mph /  25.9 km/h 98 % 0.0 in /  0 mm
07:22 15.1 °F /  -9.4 °C 14.8 °F /  -9.6 °C 1020.5 in /  34554.1 hPa SW 8.0 mph /  12.9 km/h 16.1 mph /  25.9 km/h 98 % 0.0 in /  0 mm
07:27 15.1 °F /  -9.4 °C 14.8 °F /  -9.6 °C 1020.5 in /  34554.1 hPa SW 8.0 mph /  12.9 km/h 16.1 mph /  25.9 km/h 98 % 0.0 in /  0 mm
07:32 15.1 °F /  -9.4 °C 14.8 °F /  -9.6 °C 1020.5 in /  34554.1 hPa WSW 6.4 mph /  10.3 km/h 14.5 mph /  23.3 km/h 98 % 0.0 in /  0 mm
07:42 15.1 °F /  -9.4 °C 14.8 °F /  -9.6 °C 1020.5 in /  34554.1 hPa SSW 4.8 mph /  7.7 km/h 14.5 mph /  23.3 km/h 98 % 0.0 in /  0 mm
07:47 15.1 °F /  -9.4 °C 14.8 °F /  -9.6 °C 1020.5 in /  34554.1 hPa SW 6.4 mph /  10.3 km/h 12.9 mph /  20.8 km/h 98 % 0.0 in /  0 mm
07:52 15.1 °F /  -9.4 °C 14.8 °F /  -9.6 °C 1020.5 in /  34554.1 hPa SW 9.7 mph /  15.6 km/h 12.9 mph /  20.8 km/h 98 % 0.0 in /  0 mm
08:02 15.2 °F /  -9.3 °C 14.9 °F /  -9.5 °C 1020.5 in /  34554.1 hPa SSW 4.8 mph /  7.7 km/h 12.9 mph /  20.8 km/h 98 % 0.0 in /  0 mm
08:12 15.2 °F /  -9.3 °C 14.9 °F /  -9.5 °C 1020.5 in /  34554.1 hPa WSW 6.4 mph /  10.3 km/h 12.9 mph /  20.8 km/h 98 % 0.0 in /  0 mm
08:17 15.2 °F /  -9.3 °C 14.9 °F /  -9.5 °C 1020.9 in /  34567.7 hPa SW 6.4 mph /  10.3 km/h 16.1 mph /  25.9 km/h 98 % 0.0 in /  0 mm
08:22 15.2 °F /  -9.3 °C 14.9 °F /  -9.5 °C 1020.9 in /  34567.7 hPa SW 3.2 mph /  5.1 km/h 16.1 mph /  25.9 km/h 98 % 0.0 in /  0 mm
08:27 15.3 °F /  -9.3 °C 15.0 °F /  -9.4 °C 1020.9 in /  34567.7 hPa SW 6.4 mph /  10.3 km/h 16.1 mph /  25.9 km/h 98 % 0.0 in /  0 mm
08:32 15.3 °F /  -9.3 °C 15.0 °F /  -9.4 °C 1020.9 in /  34567.7 hPa SW 3.2 mph /  5.1 km/h 12.9 mph /  20.8 km/h 98 % 0.0 in /  0 mm
08:42 15.3 °F /  -9.3 °C 15.0 °F /  -9.4 °C 1020.9 in /  34567.7 hPa SW 4.8 mph /  7.7 km/h 12.9 mph /  20.8 km/h 98 % 0.0 in /  0 mm
08:47 15.3 °F /  -9.3 °C 15.0 °F /  -9.4 °C 1020.9 in /  34567.7 hPa SSE 4.8 mph /  7.7 km/h 12.9 mph /  20.8 km/h 98 % 0.0 in /  0 mm
08:52 15.4 °F /  -9.2 °C 15.1 °F /  -9.4 °C 1021.2 in /  34577.8 hPa West 6.4 mph /  10.3 km/h 12.9 mph /  20.8 km/h 98 % 0.0 in /  0 mm
08:57 15.4 °F /  -9.2 °C 15.1 °F /  -9.4 °C 1021.2 in /  34577.8 hPa SSW 1.6 mph /  2.6 km/h 9.7 mph /  15.6 km/h 98 % 0.0 in /  0 mm
09:02 15.4 °F /  -9.2 °C 15.1 °F /  -9.4 °C 1020.9 in /  34567.7 hPa SW 3.2 mph /  5.1 km/h 9.7 mph /  15.6 km/h 98 % 0.0 in /  0 mm
09:07 15.6 °F /  -9.1 °C 15.3 °F /  -9.3 °C 1020.9 in /  34567.7 hPa SW 12.9 mph /  20.8 km/h 12.9 mph /  20.8 km/h 98 % 0.0 in /  0 mm
09:12 15.6 °F /  -9.1 °C 15.3 °F /  -9.3 °C 1020.9 in /  34567.7 hPa West 8.0 mph /  12.9 km/h 14.5 mph /  23.3 km/h 98 % 0.0 in /  0 mm
09:17 15.6 °F /  -9.1 °C 15.3 °F /  -9.3 °C 1021.2 in /  34577.8 hPa SW 4.8 mph /  7.7 km/h 14.5 mph /  23.3 km/h 98 % 0.0 in /  0 mm
09:22 15.6 °F /  -9.1 °C 15.3 °F /  -9.3 °C 1021.2 in /  34577.8 hPa WSW 4.8 mph /  7.7 km/h 14.5 mph /  23.3 km/h 98 % 0.0 in /  0 mm
09:27 15.7 °F /  -9.1 °C 15.4 °F /  -9.2 °C 1021.2 in /  34577.8 hPa Calm   9.7 mph /  15.6 km/h 98 % 0.0 in /  0 mm
09:32 15.8 °F /  -9 °C 15.5 °F /  -9.2 °C 1020.9 in /  34567.7 hPa SSW 1.6 mph /  2.6 km/h 8.0 mph /  12.9 km/h 98 % 0.0 in /  0 mm
09:37 15.8 °F /  -9 °C 15.3 °F /  -9.3 °C 1020.9 in /  34567.7 hPa SSW 4.8 mph /  7.7 km/h 8.0 mph /  12.9 km/h 97 % 0.0 in /  0 mm
09:42 16.1 °F /  -8.8 °C 15.6 °F /  -9.1 °C 1021.2 in /  34577.8 hPa SW 4.8 mph /  7.7 km/h 8.0 mph /  12.9 km/h 97 % 0.0 in /  0 mm
09:47 16.1 °F /  -8.8 °C 15.6 °F /  -9.1 °C 1020.9 in /  34567.7 hPa West 6.4 mph /  10.3 km/h 11.3 mph /  18.2 km/h 97 % 0.0 in /  0 mm
09:52 16.1 °F /  -8.8 °C 15.6 °F /  -9.1 °C 1021.2 in /  34577.8 hPa WSW 3.2 mph /  5.1 km/h 14.5 mph /  23.3 km/h 97 % 0.0 in /  0 mm
09:57 16.0 °F /  -8.9 °C 15.5 °F /  -9.2 °C 1021.2 in /  34577.8 hPa WSW 4.8 mph /  7.7 km/h 14.5 mph /  23.3 km/h 97 % 0.0 in /  0 mm
10:02 16.0 °F /  -8.9 °C 15.5 °F /  -9.2 °C 1021.2 in /  34577.8 hPa WSW 3.2 mph /  5.1 km/h 14.5 mph /  23.3 km/h 97 % 0.0 in /  0 mm
10:12 16.0 °F /  -8.9 °C 15.4 °F /  -9.2 °C 1021.2 in /  34577.8 hPa SW 9.7 mph /  15.6 km/h 12.9 mph /  20.8 km/h 96 % 0.0 in /  0 mm
10:17 16.1 °F /  -8.8 °C 15.5 °F /  -9.2 °C 1021.2 in /  34577.8 hPa WSW 6.4 mph /  10.3 km/h 12.9 mph /  20.8 km/h 96 % 0.0 in /  0 mm
10:22 16.1 °F /  -8.8 °C 15.5 °F /  -9.2 °C 1021.2 in /  34577.8 hPa WSW 6.4 mph /  10.3 km/h 12.9 mph /  20.8 km/h 96 % 0.0 in /  0 mm
10:27 16.2 °F /  -8.8 °C 15.6 °F /  -9.1 °C 1021.6 in /  34591.4 hPa WSW 8.0 mph /  12.9 km/h 12.9 mph /  20.8 km/h 96 % 0.0 in /  0 mm
10:32 16.2 °F /  -8.8 °C 15.6 °F /  -9.1 °C 1021.6 in /  34591.4 hPa SW 1.6 mph /  2.6 km/h 12.9 mph /  20.8 km/h 96 % 0.0 in /  0 mm
10:42 16.5 °F /  -8.6 °C 15.7 °F /  -9.1 °C 1021.6 in /  34591.4 hPa WSW 6.4 mph /  10.3 km/h 12.9 mph /  20.8 km/h 95 % 0.0 in /  0 mm
10:47 16.6 °F /  -8.6 °C 15.8 °F /  -9 °C 1021.6 in /  34591.4 hPa WSW 9.7 mph /  15.6 km/h 11.3 mph /  18.2 km/h 95 % 0.0 in /  0 mm
10:52 16.5 °F /  -8.6 °C 15.5 °F /  -9.2 °C 1021.6 in /  34591.4 hPa WSW 12.9 mph /  20.8 km/h 14.5 mph /  23.3 km/h 94 % 0.0 in /  0 mm
11:02 16.5 °F /  -8.6 °C 15.5 °F /  -9.2 °C 1021.6 in /  34591.4 hPa SSE 17.7 mph /  28.5 km/h 17.7 mph /  28.5 km/h 94 % 0.0 in /  0 mm
11:07 16.4 °F /  -8.7 °C 15.4 °F /  -9.2 °C 1021.6 in /  34591.4 hPa SW 11.3 mph /  18.2 km/h 22.5 mph /  36.2 km/h 94 % 0.0 in /  0 mm
11:17 16.4 °F /  -8.7 °C 15.4 °F /  -9.2 °C 1021.9 in /  34601.5 hPa SW 1.6 mph /  2.6 km/h 24.1 mph /  38.8 km/h 94 % 0.0 in /  0 mm
11:27 16.3 °F /  -8.7 °C 15.2 °F /  -9.3 °C 1021.9 in /  34601.5 hPa West 6.4 mph /  10.3 km/h 20.9 mph /  33.6 km/h 93 % 0.0 in /  0 mm
11:32 16.3 °F /  -8.7 °C 15.2 °F /  -9.3 °C 1021.9 in /  34601.5 hPa West 8.0 mph /  12.9 km/h 20.9 mph /  33.6 km/h 93 % 0.0 in /  0 mm
11:37 16.3 °F /  -8.7 °C 15.2 °F /  -9.3 °C 1021.9 in /  34601.5 hPa West 11.3 mph /  18.2 km/h 20.9 mph /  33.6 km/h 93 % 0.0 in /  0 mm
11:42 16.4 °F /  -8.7 °C 15.1 °F /  -9.4 °C 1021.9 in /  34601.5 hPa SW 11.3 mph /  18.2 km/h 17.7 mph /  28.5 km/h 92 % 0.0 in /  0 mm
11:52 16.6 °F /  -8.6 °C 15.3 °F /  -9.3 °C 1021.9 in /  34601.5 hPa WSW 4.8 mph /  7.7 km/h 19.3 mph /  31.1 km/h 92 % 0.0 in /  0 mm
12:02 16.7 °F /  -8.5 °C 15.2 °F /  -9.3 °C 1021.9 in /  34601.5 hPa WSW 16.1 mph /  25.9 km/h 19.3 mph /  31.1 km/h 91 % 0.0 in /  0 mm
12:07 16.8 °F /  -8.4 °C 15.3 °F /  -9.3 °C 1021.9 in /  34601.5 hPa WSW 17.7 mph /  28.5 km/h 24.1 mph /  38.8 km/h 91 % 0.0 in /  0 mm
12:12 16.9 °F /  -8.4 °C 15.2 °F /  -9.3 °C 1021.9 in /  34601.5 hPa WSW 9.7 mph /  15.6 km/h 29.0 mph /  46.7 km/h 90 % 0.0 in /  0 mm
12:17 17.1 °F /  -8.3 °C 15.4 °F /  -9.2 °C 1021.9 in /  34601.5 hPa WSW 16.1 mph /  25.9 km/h 29.0 mph /  46.7 km/h 90 % 0.0 in /  0 mm
12:22 17.3 °F /  -8.2 °C 15.6 °F /  -9.1 °C 1021.6 in /  34591.4 hPa SW 16.1 mph /  25.9 km/h 29.0 mph /  46.7 km/h 90 % 0.0 in /  0 mm
12:32 17.4 °F /  -8.1 °C 15.6 °F /  -9.1 °C 1021.9 in /  34601.5 hPa West 8.0 mph /  12.9 km/h 25.7 mph /  41.4 km/h 89 % 0.0 in /  0 mm
12:42 17.7 °F /  -7.9 °C 15.9 °F /  -8.9 °C 1021.9 in /  34601.5 hPa SW 6.4 mph /  10.3 km/h 27.4 mph /  44.1 km/h 89 % 0.3 in /  7.62 mm
12:47 18.0 °F /  -7.8 °C 15.8 °F /  -9 °C 1021.6 in /  34591.4 hPa West 12.9 mph /  20.8 km/h 27.4 mph /  44.1 km/h 87 % 0.3 in /  7.62 mm
12:57 17.9 °F /  -7.8 °C 15.7 °F /  -9.1 °C 1021.9 in /  34601.5 hPa WSW 11.3 mph /  18.2 km/h 24.1 mph /  38.8 km/h 87 % 0.3 in /  7.62 mm
13:07 17.8 °F /  -7.9 °C 15.4 °F /  -9.2 °C 1021.9 in /  34601.5 hPa SSW 8.0 mph /  12.9 km/h 24.1 mph /  38.8 km/h 86 % 0.3 in /  7.62 mm
13:12 17.9 °F /  -7.8 °C 15.5 °F /  -9.2 °C 1021.9 in /  34601.5 hPa SW 22.5 mph /  36.2 km/h 24.1 mph /  38.8 km/h 86 % 0.3 in /  7.62 mm
13:17 17.8 °F /  -7.9 °C 15.4 °F /  -9.2 °C 1021.6 in /  34591.4 hPa West 4.8 mph /  7.7 km/h 24.1 mph /  38.8 km/h 86 % 0.3 in /  7.62 mm
13:22 17.9 °F /  -7.8 °C 15.7 °F /  -9.1 °C 1021.9 in /  34601.5 hPa WSW 8.0 mph /  12.9 km/h 24.1 mph /  38.8 km/h 87 % 0.3 in /  7.62 mm
13:27 17.8 °F /  -7.9 °C 15.4 °F /  -9.2 °C 1021.6 in /  34591.4 hPa West 12.9 mph /  20.8 km/h 25.7 mph /  41.4 km/h 86 % 0.3 in /  7.62 mm
13:32 17.9 °F /  -7.8 °C 15.7 °F /  -9.1 °C 1021.6 in /  34591.4 hPa WSW 11.3 mph /  18.2 km/h 25.7 mph /  41.4 km/h 87 % 0.3 in /  7.62 mm
13:37 18.0 °F /  -7.8 °C 15.6 °F /  -9.1 °C 1021.6 in /  34591.4 hPa SSW 8.0 mph /  12.9 km/h 25.7 mph /  41.4 km/h 86 % 0.0 in /  0 mm
13:42 17.9 °F /  -7.8 °C 15.3 °F /  -9.3 °C 1021.6 in /  34591.4 hPa West 12.9 mph /  20.8 km/h 19.3 mph /  31.1 km/h 85 % 0.0 in /  0 mm
13:47 17.9 °F /  -7.8 °C 15.5 °F /  -9.2 °C 1021.6 in /  34591.4 hPa WSW 9.7 mph /  15.6 km/h 24.1 mph /  38.8 km/h 86 % 0.0 in /  0 mm
13:52 17.9 °F /  -7.8 °C 15.3 °F /  -9.3 °C 1021.9 in /  34601.5 hPa WSW 16.1 mph /  25.9 km/h 29.0 mph /  46.7 km/h 85 % 0.0 in /  0 mm
14:02 17.9 °F /  -7.8 °C 15.7 °F /  -9.1 °C 1021.6 in /  34591.4 hPa WSW 16.1 mph /  25.9 km/h 33.8 mph /  54.4 km/h 87 % 0.0 in /  0 mm
14:17 18.0 °F /  -7.8 °C 15.8 °F /  -9 °C 1021.6 in /  34591.4 hPa WSW 6.4 mph /  10.3 km/h 20.9 mph /  33.6 km/h 87 % 0.0 in /  0 mm
14:22 18.1 °F /  -7.7 °C 15.9 °F /  -8.9 °C 1021.6 in /  34591.4 hPa WSW 9.7 mph /  15.6 km/h 20.9 mph /  33.6 km/h 87 % 0.0 in /  0 mm
14:27 18.1 °F /  -7.7 °C 15.9 °F /  -8.9 °C 1021.9 in /  34601.5 hPa West 14.5 mph /  23.3 km/h 20.9 mph /  33.6 km/h 87 % 0.0 in /  0 mm
14:32 18.1 °F /  -7.7 °C 15.9 °F /  -8.9 °C 1021.9 in /  34601.5 hPa WSW 12.9 mph /  20.8 km/h 20.9 mph /  33.6 km/h 87 % 0.0 in /  0 mm
14:37 18.0 °F /  -7.8 °C 15.8 °F /  -9 °C 1021.9 in /  34601.5 hPa West 8.0 mph /  12.9 km/h 20.9 mph /  33.6 km/h 87 % 0.0 in /  0 mm
14:42 18.0 °F /  -7.8 °C 15.8 °F /  -9 °C 1021.6 in /  34591.4 hPa WSW 12.9 mph /  20.8 km/h 19.3 mph /  31.1 km/h 87 % 0.0 in /  0 mm
14:47 18.0 °F /  -7.8 °C 15.8 °F /  -9 °C 1021.6 in /  34591.4 hPa West 11.3 mph /  18.2 km/h 19.3 mph /  31.1 km/h 87 % 0.0 in /  0 mm
14:52 18.1 °F /  -7.7 °C 15.9 °F /  -8.9 °C 1021.6 in /  34591.4 hPa WSW 8.0 mph /  12.9 km/h 19.3 mph /  31.1 km/h 87 % 0.0 in /  0 mm
14:57 18.1 °F /  -7.7 °C 15.9 °F /  -8.9 °C 1021.6 in /  34591.4 hPa West 6.4 mph /  10.3 km/h 22.5 mph /  36.2 km/h 87 % 0.0 in /  0 mm
15:02 18.2 °F /  -7.7 °C 15.8 °F /  -9 °C 1021.6 in /  34591.4 hPa SW 9.7 mph /  15.6 km/h 22.5 mph /  36.2 km/h 86 % 0.0 in /  0 mm
15:12 18.1 °F /  -7.7 °C 15.7 °F /  -9.1 °C 1021.6 in /  34591.4 hPa SW 8.0 mph /  12.9 km/h 19.3 mph /  31.1 km/h 86 % 0.0 in /  0 mm
15:17 17.9 °F /  -7.8 °C 15.5 °F /  -9.2 °C 1021.6 in /  34591.4 hPa SW 9.7 mph /  15.6 km/h 19.3 mph /  31.1 km/h 86 % 0.0 in /  0 mm
15:22 17.9 °F /  -7.8 °C 15.7 °F /  -9.1 °C 1021.6 in /  34591.4 hPa SW 8.0 mph /  12.9 km/h 24.1 mph /  38.8 km/h 87 % 0.0 in /  0 mm
15:27 17.9 °F /  -7.8 °C 15.7 °F /  -9.1 °C 1021.6 in /  34591.4 hPa SW 4.8 mph /  7.7 km/h 24.1 mph /  38.8 km/h 87 % 0.0 in /  0 mm
15:32 17.9 °F /  -7.8 °C 15.7 °F /  -9.1 °C 1021.9 in /  34601.5 hPa SW 11.3 mph /  18.2 km/h 22.5 mph /  36.2 km/h 87 % 0.0 in /  0 mm
15:37 17.9 °F /  -7.8 °C 15.9 °F /  -8.9 °C 1021.9 in /  34601.5 hPa SW 4.8 mph /  7.7 km/h 19.3 mph /  31.1 km/h 88 % 0.0 in /  0 mm
15:42 17.8 °F /  -7.9 °C 15.6 °F /  -9.1 °C 1021.9 in /  34601.5 hPa West 12.9 mph /  20.8 km/h 17.7 mph /  28.5 km/h 87 % 0.0 in /  0 mm
15:47 17.9 °F /  -7.8 °C 15.7 °F /  -9.1 °C 1021.9 in /  34601.5 hPa WSW 12.9 mph /  20.8 km/h 20.9 mph /  33.6 km/h 87 % 0.0 in /  0 mm
15:52 17.9 °F /  -7.8 °C 15.9 °F /  -8.9 °C 1021.6 in /  34591.4 hPa WSW 8.0 mph /  12.9 km/h 20.9 mph /  33.6 km/h 88 % 0.0 in /  0 mm
16:02 18.1 °F /  -7.7 °C 15.9 °F /  -8.9 °C 1021.6 in /  34591.4 hPa West 11.3 mph /  18.2 km/h 17.7 mph /  28.5 km/h 87 % 0.0 in /  0 mm
16:07 18.1 °F /  -7.7 °C 15.9 °F /  -8.9 °C 1021.6 in /  34591.4 hPa SW 4.8 mph /  7.7 km/h 16.1 mph /  25.9 km/h 87 % 0.0 in /  0 mm
16:12 18.2 °F /  -7.7 °C 16.0 °F /  -8.9 °C 1021.6 in /  34591.4 hPa West 4.8 mph /  7.7 km/h 19.3 mph /  31.1 km/h 87 % 0.0 in /  0 mm
16:17 18.2 °F /  -7.7 °C 16.0 °F /  -8.9 °C 1021.6 in /  34591.4 hPa WSW 4.8 mph /  7.7 km/h 19.3 mph /  31.1 km/h 87 % 0.0 in /  0 mm
16:22 18.3 °F /  -7.6 °C 16.1 °F /  -8.8 °C 1021.6 in /  34591.4 hPa West 9.7 mph /  15.6 km/h 19.3 mph /  31.1 km/h 87 % 0.0 in /  0 mm
16:27 18.4 °F /  -7.6 °C 16.2 °F /  -8.8 °C 1021.2 in /  34577.8 hPa WNW 9.7 mph /  15.6 km/h 19.3 mph /  31.1 km/h 87 % 0.0 in /  0 mm
16:32 18.4 °F /  -7.6 °C 16.0 °F /  -8.9 °C 1021.2 in /  34577.8 hPa WSW 19.3 mph /  31.1 km/h 19.3 mph /  31.1 km/h 86 % 0.0 in /  0 mm
16:37 18.4 °F /  -7.6 °C 16.2 °F /  -8.8 °C 1021.2 in /  34577.8 hPa WSW 11.3 mph /  18.2 km/h 19.3 mph /  31.1 km/h 87 % 0.0 in /  0 mm
16:42 18.4 °F /  -7.6 °C 16.0 °F /  -8.9 °C 1021.2 in /  34577.8 hPa West 9.7 mph /  15.6 km/h 19.3 mph /  31.1 km/h 86 % 0.0 in /  0 mm
16:47 18.4 °F /  -7.6 °C 16.2 °F /  -8.8 °C 1021.6 in /  34591.4 hPa West 8.0 mph /  12.9 km/h 19.3 mph /  31.1 km/h 87 % 0.0 in /  0 mm
16:52 18.4 °F /  -7.6 °C 16.2 °F /  -8.8 °C 1021.6 in /  34591.4 hPa SW 6.4 mph /  10.3 km/h 19.3 mph /  31.1 km/h 87 % 0.0 in /  0 mm
16:57 18.4 °F /  -7.6 °C 16.2 °F /  -8.8 °C 1021.6 in /  34591.4 hPa WSW 9.7 mph /  15.6 km/h 19.3 mph /  31.1 km/h 87 % 0.0 in /  0 mm
17:02 18.4 °F /  -7.6 °C 16.2 °F /  -8.8 °C 1021.6 in /  34591.4 hPa SW 6.4 mph /  10.3 km/h 16.1 mph /  25.9 km/h 87 % 0.0 in /  0 mm
17:07 18.4 °F /  -7.6 °C 16.2 °F /  -8.8 °C 1021.6 in /  34591.4 hPa West 9.7 mph /  15.6 km/h 16.1 mph /  25.9 km/h 87 % 0.0 in /  0 mm
17:12 18.4 °F /  -7.6 °C 16.2 °F /  -8.8 °C 1021.6 in /  34591.4 hPa SW 11.3 mph /  18.2 km/h 16.1 mph /  25.9 km/h 87 % 0.0 in /  0 mm
17:17 18.4 °F /  -7.6 °C 16.2 °F /  -8.8 °C 1021.6 in /  34591.4 hPa WSW 3.2 mph /  5.1 km/h 16.1 mph /  25.9 km/h 87 % 0.0 in /  0 mm
17:22 18.4 °F /  -7.6 °C 16.2 °F /  -8.8 °C 1021.2 in /  34577.8 hPa SW 14.5 mph /  23.3 km/h 16.1 mph /  25.9 km/h 87 % 0.0 in /  0 mm
17:32 18.5 °F /  -7.5 °C 16.3 °F /  -8.7 °C 1021.2 in /  34577.8 hPa West 4.8 mph /  7.7 km/h 20.9 mph /  33.6 km/h 87 % 0.0 in /  0 mm
17:37 18.6 °F /  -7.4 °C 16.6 °F /  -8.6 °C 1021.2 in /  34577.8 hPa WSW 9.7 mph /  15.6 km/h 20.9 mph /  33.6 km/h 88 % 0.0 in /  0 mm
17:42 18.7 °F /  -7.4 °C 16.5 °F /  -8.6 °C 1021.2 in /  34577.8 hPa SW 16.1 mph /  25.9 km/h 19.3 mph /  31.1 km/h 87 % 0.0 in /  0 mm
17:47 18.7 °F /  -7.4 °C 16.5 °F /  -8.6 °C 1021.2 in /  34577.8 hPa WSW 11.3 mph /  18.2 km/h 17.7 mph /  28.5 km/h 87 % 0.0 in /  0 mm
17:52 18.8 °F /  -7.3 °C 16.6 °F /  -8.6 °C 1021.2 in /  34577.8 hPa WSW 8.0 mph /  12.9 km/h 17.7 mph /  28.5 km/h 87 % 0.0 in /  0 mm
17:57 18.7 °F /  -7.4 °C 16.5 °F /  -8.6 °C 1021.2 in /  34577.8 hPa West 4.8 mph /  7.7 km/h 16.1 mph /  25.9 km/h 87 % 0.0 in /  0 mm
18:02 18.7 °F /  -7.4 °C 16.5 °F /  -8.6 °C 1021.2 in /  34577.8 hPa WSW 11.3 mph /  18.2 km/h 20.9 mph /  33.6 km/h 87 % 0.0 in /  0 mm
18:07 18.7 °F /  -7.4 °C 16.5 °F /  -8.6 °C 1021.2 in /  34577.8 hPa West 8.0 mph /  12.9 km/h 22.5 mph /  36.2 km/h 87 % 0.0 in /  0 mm
18:12 18.6 °F /  -7.4 °C 16.4 °F /  -8.7 °C 1021.6 in /  34591.4 hPa SW 4.8 mph /  7.7 km/h 22.5 mph /  36.2 km/h 87 % 0.0 in /  0 mm
18:17 18.6 °F /  -7.4 °C 16.6 °F /  -8.6 °C 1021.6 in /  34591.4 hPa WSW 14.5 mph /  23.3 km/h 20.9 mph /  33.6 km/h 88 % 0.0 in /  0 mm
18:22 18.5 °F /  -7.5 °C 16.5 °F /  -8.6 °C 1021.6 in /  34591.4 hPa SW 9.7 mph /  15.6 km/h 22.5 mph /  36.2 km/h 88 % 0.0 in /  0 mm
18:27 18.5 °F /  -7.5 °C 16.5 °F /  -8.6 °C 1021.6 in /  34591.4 hPa WSW 6.4 mph /  10.3 km/h 22.5 mph /  36.2 km/h 88 % 0.0 in /  0 mm
18:32 18.5 °F /  -7.5 °C 16.5 °F /  -8.6 °C 1021.6 in /  34591.4 hPa WSW 9.7 mph /  15.6 km/h 19.3 mph /  31.1 km/h 88 % 0.0 in /  0 mm
18:42 18.5 °F /  -7.5 °C 16.5 °F /  -8.6 °C 1021.6 in /  34591.4 hPa West 4.8 mph /  7.7 km/h 12.9 mph /  20.8 km/h 88 % 0.0 in /  0 mm
18:47 18.4 °F /  -7.6 °C 16.4 °F /  -8.7 °C 1021.6 in /  34591.4 hPa West 9.7 mph /  15.6 km/h 19.3 mph /  31.1 km/h 88 % 0.0 in /  0 mm
18:52 18.3 °F /  -7.6 °C 16.5 °F /  -8.6 °C 1021.6 in /  34591.4 hPa West 9.7 mph /  15.6 km/h 19.3 mph /  31.1 km/h 89 % 0.0 in /  0 mm
18:57 18.2 °F /  -7.7 °C 16.5 °F /  -8.6 °C 1021.6 in /  34591.4 hPa WSW 12.9 mph /  20.8 km/h 19.3 mph /  31.1 km/h 90 % 0.0 in /  0 mm
19:02 18.0 °F /  -7.8 °C 16.5 °F /  -8.6 °C 1021.6 in /  34591.4 hPa SW 8.0 mph /  12.9 km/h 20.9 mph /  33.6 km/h 91 % 0.0 in /  0 mm
19:07 17.8 °F /  -7.9 °C 16.5 °F /  -8.6 °C 1021.6 in /  34591.4 hPa WSW 14.5 mph /  23.3 km/h 20.9 mph /  33.6 km/h 92 % 0.0 in /  0 mm
19:12 17.7 °F /  -7.9 °C 16.4 °F /  -8.7 °C 1021.6 in /  34591.4 hPa WSW 4.8 mph /  7.7 km/h 17.7 mph /  28.5 km/h 92 % 0.0 in /  0 mm
19:17 17.6 °F /  -8 °C 16.5 °F /  -8.6 °C 1021.6 in /  34591.4 hPa West 12.9 mph /  20.8 km/h 19.3 mph /  31.1 km/h 93 % 0.0 in /  0 mm
19:22 17.6 °F /  -8 °C 16.5 °F /  -8.6 °C 1021.6 in /  34591.4 hPa West 3.2 mph /  5.1 km/h 19.3 mph /  31.1 km/h 93 % 0.0 in /  0 mm
19:27 17.6 °F /  -8 °C 16.5 °F /  -8.6 °C 1021.6 in /  34591.4 hPa South 3.2 mph /  5.1 km/h 16.1 mph /  25.9 km/h 93 % 0.0 in /  0 mm
19:32 17.5 °F /  -8.1 °C 16.4 °F /  -8.7 °C 1021.6 in /  34591.4 hPa WSW 9.7 mph /  15.6 km/h 16.1 mph /  25.9 km/h 93 % 0.0 in /  0 mm
19:37 17.5 °F /  -8.1 °C 16.5 °F /  -8.6 °C 1021.6 in /  34591.4 hPa SW 3.2 mph /  5.1 km/h 19.3 mph /  31.1 km/h 94 % 0.0 in /  0 mm
19:42 17.4 °F /  -8.1 °C 16.4 °F /  -8.7 °C 1021.6 in /  34591.4 hPa SW 8.0 mph /  12.9 km/h 19.3 mph /  31.1 km/h 94 % 0.0 in /  0 mm
19:47 17.4 °F /  -8.1 °C 16.4 °F /  -8.7 °C 1021.6 in /  34591.4 hPa West 11.3 mph /  18.2 km/h 19.3 mph /  31.1 km/h 94 % 0.0 in /  0 mm
19:52 17.4 °F /  -8.1 °C 16.4 °F /  -8.7 °C 1021.6 in /  34591.4 hPa WSW 8.0 mph /  12.9 km/h 19.3 mph /  31.1 km/h 94 % 0.0 in /  0 mm
19:57 17.3 °F /  -8.2 °C 16.5 °F /  -8.6 °C 1021.6 in /  34591.4 hPa SW 16.1 mph /  25.9 km/h 16.1 mph /  25.9 km/h 95 % 0.0 in /  0 mm
20:02 17.3 °F /  -8.2 °C 16.5 °F /  -8.6 °C 1021.6 in /  34591.4 hPa SSW 8.0 mph /  12.9 km/h 20.9 mph /  33.6 km/h 95 % 0.0 in /  0 mm
20:07 17.3 °F /  -8.2 °C 16.5 °F /  -8.6 °C 1021.6 in /  34591.4 hPa SW 9.7 mph /  15.6 km/h 20.9 mph /  33.6 km/h 95 % 0.0 in /  0 mm
20:12 17.2 °F /  -8.2 °C 16.4 °F /  -8.7 °C 1021.6 in /  34591.4 hPa SW 4.8 mph /  7.7 km/h 20.9 mph /  33.6 km/h 95 % 0.0 in /  0 mm
20:17 17.2 °F /  -8.2 °C 16.4 °F /  -8.7 °C 1021.6 in /  34591.4 hPa SSW 6.4 mph /  10.3 km/h 16.1 mph /  25.9 km/h 95 % 0.0 in /  0 mm
20:27 17.2 °F /  -8.2 °C 16.6 °F /  -8.6 °C 1021.2 in /  34577.8 hPa SW 9.7 mph /  15.6 km/h 16.1 mph /  25.9 km/h 96 % 0.0 in /  0 mm
20:32 17.1 °F /  -8.3 °C 16.5 °F /  -8.6 °C 1021.6 in /  34591.4 hPa WSW 8.0 mph /  12.9 km/h 16.1 mph /  25.9 km/h 96 % 0.0 in /  0 mm
20:37 17.1 °F /  -8.3 °C 16.5 °F /  -8.6 °C 1021.6 in /  34591.4 hPa SW 4.8 mph /  7.7 km/h 12.9 mph /  20.8 km/h 96 % 0.0 in /  0 mm
20:42 17.1 °F /  -8.3 °C 16.5 °F /  -8.6 °C 1021.2 in /  34577.8 hPa SW 8.0 mph /  12.9 km/h 12.9 mph /  20.8 km/h 96 % 0.0 in /  0 mm
20:47 17.1 °F /  -8.3 °C 16.5 °F /  -8.6 °C 1021.2 in /  34577.8 hPa SW 11.3 mph /  18.2 km/h 14.5 mph /  23.3 km/h 96 % 0.0 in /  0 mm
20:52 17.1 °F /  -8.3 °C 16.5 °F /  -8.6 °C 1021.6 in /  34591.4 hPa SW 8.0 mph /  12.9 km/h 16.1 mph /  25.9 km/h 96 % 0.0 in /  0 mm
20:57 17.1 °F /  -8.3 °C 16.5 °F /  -8.6 °C 1021.6 in /  34591.4 hPa WSW 11.3 mph /  18.2 km/h 17.7 mph /  28.5 km/h 96 % 0.3 in /  7.62 mm
21:02 17.1 °F /  -8.3 °C 16.5 °F /  -8.6 °C 1021.6 in /  34591.4 hPa WSW 11.3 mph /  18.2 km/h 19.3 mph /  31.1 km/h 96 % 0.3 in /  7.62 mm
21:07 17.1 °F /  -8.3 °C 16.5 °F /  -8.6 °C 1021.2 in /  34577.8 hPa SSW 6.4 mph /  10.3 km/h 19.3 mph /  31.1 km/h 96 % 0.3 in /  7.62 mm
21:12 17.1 °F /  -8.3 °C 16.5 °F /  -8.6 °C 1021.2 in /  34577.8 hPa West 6.4 mph /  10.3 km/h 19.3 mph /  31.1 km/h 96 % 0.3 in /  7.62 mm
21:17 17.1 °F /  -8.3 °C 16.5 °F /  -8.6 °C 1021.2 in /  34577.8 hPa SW 6.4 mph /  10.3 km/h 19.3 mph /  31.1 km/h 96 % 0.3 in /  7.62 mm
21:22 17.1 °F /  -8.3 °C 16.5 °F /  -8.6 °C 1021.2 in /  34577.8 hPa WSW 8.0 mph /  12.9 km/h 20.9 mph /  33.6 km/h 96 % 0.3 in /  7.62 mm
21:27 17.1 °F /  -8.3 °C 16.5 °F /  -8.6 °C 1021.2 in /  34577.8 hPa SW 8.0 mph /  12.9 km/h 20.9 mph /  33.6 km/h 96 % 0.3 in /  7.62 mm
21:32 17.1 °F /  -8.3 °C 16.5 °F /  -8.6 °C 1021.2 in /  34577.8 hPa SW 8.0 mph /  12.9 km/h 20.9 mph /  33.6 km/h 96 % 0.3 in /  7.62 mm
21:37 17.1 °F /  -8.3 °C 16.5 °F /  -8.6 °C 1021.2 in /  34577.8 hPa SSW 8.0 mph /  12.9 km/h 19.3 mph /  31.1 km/h 96 % 0.3 in /  7.62 mm
21:42 17.1 °F /  -8.3 °C 16.5 °F /  -8.6 °C 1021.2 in /  34577.8 hPa WSW 4.8 mph /  7.7 km/h 19.3 mph /  31.1 km/h 96 % 0.3 in /  7.62 mm
21:47 17.2 °F /  -8.2 °C 16.6 °F /  -8.6 °C 1021.2 in /  34577.8 hPa SW 14.5 mph /  23.3 km/h 19.3 mph /  31.1 km/h 96 % 0.3 in /  7.62 mm
21:52 17.2 °F /  -8.2 °C 16.6 °F /  -8.6 °C 1021.2 in /  34577.8 hPa SW 8.0 mph /  12.9 km/h 20.9 mph /  33.6 km/h 96 % 0.0 in /  0 mm
21:57 17.2 °F /  -8.2 °C 16.6 °F /  -8.6 °C 1021.2 in /  34577.8 hPa SW 4.8 mph /  7.7 km/h 20.9 mph /  33.6 km/h 96 % 0.0 in /  0 mm
22:02 17.2 °F /  -8.2 °C 16.6 °F /  -8.6 °C 1021.2 in /  34577.8 hPa WSW 12.9 mph /  20.8 km/h 20.9 mph /  33.6 km/h 96 % 0.0 in /  0 mm
22:07 17.3 °F /  -8.2 °C 16.7 °F /  -8.5 °C 1021.2 in /  34577.8 hPa SW 4.8 mph /  7.7 km/h 17.7 mph /  28.5 km/h 96 % 0.0 in /  0 mm
22:12 17.3 °F /  -8.2 °C 16.7 °F /  -8.5 °C 1020.9 in /  34567.7 hPa WSW 9.7 mph /  15.6 km/h 19.3 mph /  31.1 km/h 96 % 0.0 in /  0 mm
22:17 17.3 °F /  -8.2 °C 16.7 °F /  -8.5 °C 1020.9 in /  34567.7 hPa West 8.0 mph /  12.9 km/h 19.3 mph /  31.1 km/h 96 % 0.0 in /  0 mm
22:22 17.3 °F /  -8.2 °C 16.7 °F /  -8.5 °C 1020.9 in /  34567.7 hPa WSW 9.7 mph /  15.6 km/h 19.3 mph /  31.1 km/h 96 % 0.3 in /  7.62 mm
22:27 17.3 °F /  -8.2 °C 16.7 °F /  -8.5 °C 1020.9 in /  34567.7 hPa SSW 12.9 mph /  20.8 km/h 24.1 mph /  38.8 km/h 96 % 0.3 in /  7.62 mm
22:32 17.3 °F /  -8.2 °C 16.7 °F /  -8.5 °C 1020.9 in /  34567.7 hPa SW 12.9 mph /  20.8 km/h 24.1 mph /  38.8 km/h 96 % 0.3 in /  7.62 mm
22:37 17.3 °F /  -8.2 °C 16.7 °F /  -8.5 °C 1020.9 in /  34567.7 hPa WSW 22.5 mph /  36.2 km/h 24.1 mph /  38.8 km/h 96 % 0.3 in /  7.62 mm
22:42 17.3 °F /  -8.2 °C 16.7 °F /  -8.5 °C 1020.9 in /  34567.7 hPa West 4.8 mph /  7.7 km/h 24.1 mph /  38.8 km/h 96 % 0.3 in /  7.62 mm
22:47 17.3 °F /  -8.2 °C 16.7 °F /  -8.5 °C 1020.9 in /  34567.7 hPa SW 8.0 mph /  12.9 km/h 24.1 mph /  38.8 km/h 96 % 0.3 in /  7.62 mm
22:52 17.3 °F /  -8.2 °C 16.7 °F /  -8.5 °C 1020.9 in /  34567.7 hPa West 6.4 mph /  10.3 km/h 24.1 mph /  38.8 km/h 96 % 0.3 in /  7.62 mm
22:57 17.3 °F /  -8.2 °C 16.7 °F /  -8.5 °C 1020.9 in /  34567.7 hPa West 8.0 mph /  12.9 km/h 20.9 mph /  33.6 km/h 96 % 0.3 in /  7.62 mm
23:02 17.3 °F /  -8.2 °C 16.7 °F /  -8.5 °C 1020.9 in /  34567.7 hPa SW 11.3 mph /  18.2 km/h 22.5 mph /  36.2 km/h 96 % 0.3 in /  7.62 mm
23:07 17.3 °F /  -8.2 °C 16.7 °F /  -8.5 °C 1020.9 in /  34567.7 hPa SW 12.9 mph /  20.8 km/h 22.5 mph /  36.2 km/h 96 % 0.3 in /  7.62 mm
23:12 17.3 °F /  -8.2 °C 16.7 °F /  -8.5 °C 1020.5 in /  34554.1 hPa WSW 17.7 mph /  28.5 km/h 24.1 mph /  38.8 km/h 96 % 0.3 in /  7.62 mm
23:17 17.3 °F /  -8.2 °C 16.7 °F /  -8.5 °C 1020.9 in /  34567.7 hPa WSW 11.3 mph /  18.2 km/h 24.1 mph /  38.8 km/h 96 % 0.3 in /  7.62 mm
23:22 17.3 °F /  -8.2 °C 16.7 °F /  -8.5 °C 1020.9 in /  34567.7 hPa SW 6.4 mph /  10.3 km/h 30.6 mph /  49.2 km/h 96 % 0.0 in /  0 mm
23:32 17.3 °F /  -8.2 °C 16.7 °F /  -8.5 °C 1020.9 in /  34567.7 hPa WSW 8.0 mph /  12.9 km/h 27.4 mph /  44.1 km/h 96 % 0.0 in /  0 mm
23:37 17.3 °F /  -8.2 °C 16.7 °F /  -8.5 °C 1020.9 in /  34567.7 hPa WSW 4.8 mph /  7.7 km/h 24.1 mph /  38.8 km/h 96 % 0.0 in /  0 mm
23:42 17.3 °F /  -8.2 °C 16.7 °F /  -8.5 °C 1020.9 in /  34567.7 hPa SW 12.9 mph /  20.8 km/h 24.1 mph /  38.8 km/h 96 % 0.0 in /  0 mm
23:47 17.3 °F /  -8.2 °C 16.7 °F /  -8.5 °C 1020.9 in /  34567.7 hPa SW 12.9 mph /  20.8 km/h 24.1 mph /  38.8 km/h 96 % 0.0 in /  0 mm
23:52 17.3 °F /  -8.2 °C 16.7 °F /  -8.5 °C 1020.9 in /  34567.7 hPa SW 12.9 mph /  20.8 km/h 20.9 mph /  33.6 km/h 96 % 0.0 in /  0 mm
23:57 17.4 °F /  -8.1 °C 16.8 °F /  -8.4 °C 1020.9 in /  34567.7 hPa SW 6.4 mph /  10.3 km/h 27.4 mph /  44.1 km/h 96 % 0.0 in /  0 mm
Meteo18
Compliments of Weather Underground - 4 mb

Script developed by  Jim McMurry - jmcmurry@mwt.net Adapted for the template by  Wim van der Kuil - Leuven-Template.eu

You find our weather info also at:

European Weather Network

Weather Underground

Equipment we use:

Weather-station
Davis Vue

Weather-program
Meteobridge

Weather-server
Raspberry PI 2 B+

Provider
1 and 1

Davis Vue

Meteobridge

Raspberry PI 2 B+

1 and 1